Time;durP1;ratioP1;P1;durP2;ratioP2;P2;SDS_P1;SDS_P2;PMS_P1;PMS_P2;Temp;Humidity;BMP_temperature;BMP_pressure;BME280_temperature;BME280_humidity;BME280_pressure;Samples;Min_cycle;Max_cycle;Signal;HPM_P1;HPM_P2
2021/08/05 00:00:55;;;;;;;17.23;9.45;;;;;;;15.10;84.15;94472.75;1695254;83;21550;-59
2021/08/05 00:03:22;;;;;;;17.45;10.75;;;;;;;15.07;84.19;94473.72;1712758;83;21062;-58
2021/08/05 00:05:48;;;;;;;22.52;10.25;;;;;;;15.02;84.31;94477.14;1704836;83;21018;-58
2021/08/05 00:08:15;;;;;;;23.75;10.63;;;;;;;15.02;84.57;94474.38;1702933;83;21090;-59
2021/08/05 00:10:43;;;;;;;21.73;11.12;;;;;;;15.01;84.76;94479.78;1706576;84;21015;-59
2021/08/05 00:13:10;;;;;;;21.05;11.05;;;;;;;14.97;84.96;94477.09;1698138;83;21047;-58
2021/08/05 00:15:37;;;;;;;25.25;10.80;;;;;;;14.93;85.31;94483.42;1688546;83;21023;-59
2021/08/05 00:18:05;;;;;;;20.43;10.48;;;;;;;14.88;85.58;94479.35;1703056;83;21003;-59
2021/08/05 00:20:32;;;;;;;18.98;11.60;;;;;;;14.88;85.83;94473.04;1705362;83;21541;-58
2021/08/05 00:22:59;;;;;;;22.65;10.38;;;;;;;14.83;85.82;94468.94;1687572;83;21151;-59
2021/08/05 00:25:26;;;;;;;21.87;9.73;;;;;;;14.81;86.06;94461.73;1688647;83;21056;-58
2021/08/05 00:27:53;;;;;;;16.67;9.45;;;;;;;14.79;85.97;94460.70;1672481;83;21675;-59
2021/08/05 00:30:19;;;;;;;15.50;9.30;;;;;;;14.77;85.95;94457.63;1703667;83;21003;-59
2021/08/05 00:32:48;;;;;;;13.35;10.40;;;;;;;14.73;85.99;94455.68;1691136;83;21070;-58
2021/08/05 00:35:15;;;;;;;20.55;10.75;;;;;;;14.69;86.17;94460.05;1696445;83;21139;-58
2021/08/05 00:37:42;;;;;;;15.58;10.93;;;;;;;14.67;86.42;94456.98;1698043;83;21049;-59
2021/08/05 00:40:09;;;;;;;17.60;9.83;;;;;;;14.67;86.47;94457.61;1703553;83;21015;-58
2021/08/05 00:42:36;;;;;;;19.35;10.18;;;;;;;14.69;86.50;94451.75;1698694;83;21664;-58
2021/08/05 00:45:05;;;;;;;17.62;10.55;;;;;;;14.72;86.73;94448.01;1700684;83;22078;-58
2021/08/05 00:47:33;;;;;;;19.60;10.98;;;;;;;14.80;86.83;94440.81;1688186;83;21185;-58
2021/08/05 00:49:59;;;;;;;28.20;11.68;;;;;;;14.88;86.59;94439.19;1701273;83;20994;-58
2021/08/05 00:52:26;;;;;;;16.07;10.30;;;;;;;14.94;86.50;94435.87;1668627;84;21464;-58
2021/08/05 00:54:54;;;;;;;20.27;10.30;;;;;;;14.99;86.45;94435.17;1688729;83;20991;-58
2021/08/05 00:57:21;;;;;;;20.90;10.30;;;;;;;15.06;86.21;94436.17;1689787;83;20972;-58
2021/08/05 00:59:47;;;;;;;18.30;9.58;;;;;;;15.15;86.04;94427.72;1679921;84;21139;-58
2021/08/05 01:02:19;;;;;;;17.27;9.90;;;;;;;15.22;85.70;94428.67;1697174;83;21029;-59
2021/08/05 01:04:49;;;;;;;12.95;9.25;;;;;;;15.26;85.26;94427.88;1693289;83;21450;-57
2021/08/05 01:07:28;;;;;;;15.30;8.93;;;;;;;15.22;85.25;94434.22;1666873;83;21035;-59
2021/08/05 01:10:11;;;;;;;20.02;9.40;;;;;;;15.19;85.32;94425.50;1687633;83;21118;-59
2021/08/05 01:13:07;;;;;;;14.50;9.33;;;;;;;15.19;85.41;94424.75;1685203;83;21131;-58
2021/08/05 01:15:33;;;;;;;23.18;10.85;;;;;;;15.14;85.41;94415.11;1691196;83;21082;-58
2021/08/05 01:18:07;;;;;;;22.65;10.53;;;;;;;15.11;85.45;94416.69;1698875;83;21466;-58
2021/08/05 01:20:34;;;;;;;15.78;9.98;;;;;;;15.06;85.66;94422.32;1690009;83;21600;-58
2021/08/05 01:23:42;;;;;;;16.35;9.75;;;;;;;15.03;85.70;94423.90;1702522;83;21058;-59
2021/08/05 01:26:17;;;;;;;25.75;9.28;;;;;;;14.98;85.59;94425.34;1693969;83;21163;-59
2021/08/05 01:28:44;;;;;;;18.17;10.60;;;;;;;14.91;85.79;94424.38;1690167;83;21066;-59
2021/08/05 01:31:12;;;;;;;20.65;10.78;;;;;;;14.93;85.98;94419.72;1698436;83;21133;-58
2021/08/05 01:33:39;;;;;;;10.38;8.65;;;;;;;14.96;86.14;94426.45;1711585;83;20978;-58
2021/08/05 01:36:08;;;;;;;14.38;8.98;;;;;;;14.98;86.02;94426.73;1692721;83;21555;-57
2021/08/05 01:38:36;;;;;;;15.55;9.60;;;;;;;14.96;85.95;94413.98;1703305;84;21133;-58
2021/08/05 01:41:06;;;;;;;16.27;9.38;;;;;;;14.96;85.86;94407.70;1701413;83;21055;-57
2021/08/05 01:43:33;;;;;;;20.92;10.53;;;;;;;14.97;85.85;94408.58;1700744;83;21438;-58
2021/08/05 01:46:01;;;;;;;21.30;11.25;;;;;;;15.02;86.00;94407.89;1686091;83;21581;-57
2021/08/05 01:48:31;;;;;;;15.23;10.55;;;;;;;15.06;85.83;94408.47;1696076;83;20943;-58
2021/08/05 01:50:58;;;;;;;19.35;9.88;;;;;;;15.09;85.63;94403.95;1691221;83;21825;-58
2021/08/05 01:53:25;;;;;;;12.70;9.53;;;;;;;15.10;85.53;94394.38;1702043;83;21026;-59
2021/08/05 01:55:52;;;;;;;16.48;9.70;;;;;;;15.13;85.46;94391.42;1682979;84;21014;-57
2021/08/05 01:58:19;;;;;;;17.50;10.72;;;;;;;15.18;85.53;94387.20;1680858;83;21027;-58
2021/08/05 02:00:47;;;;;;;19.27;11.05;;;;;;;15.21;85.53;94382.81;1708258;83;21044;-58
2021/08/05 02:03:16;;;;;;;17.73;9.98;;;;;;;15.27;85.42;94373.97;1666455;83;21525;-58
2021/08/05 02:06:11;;;;;;;15.68;10.05;;;;;;;15.31;85.19;94373.16;1700433;83;21066;-58
2021/08/05 02:08:44;;;;;;;16.65;9.18;;;;;;;15.34;85.10;94368.02;1692007;83;21066;-60
2021/08/05 02:11:11;;;;;;;15.38;10.05;;;;;;;15.38;85.05;94373.36;1699853;83;20959;-58
2021/08/05 02:13:43;;;;;;;16.50;11.35;;;;;;;15.41;85.06;94367.61;1691229;83;20976;-58
2021/08/05 02:16:17;;;;;;;17.15;10.40;;;;;;;15.45;84.87;94355.68;1704000;83;21898;-58
2021/08/05 02:18:46;;;;;;;18.35;9.60;;;;;;;15.50;84.77;94356.97;1703226;83;21063;-58
2021/08/05 02:21:14;;;;;;;11.38;8.85;;;;;;;15.53;84.62;94352.61;1692061;83;20979;-58
2021/08/05 02:23:42;;;;;;;15.58;9.83;;;;;;;15.60;84.37;94352.19;1687867;83;20970;-59
2021/08/05 02:26:09;;;;;;;14.73;8.98;;;;;;;15.60;83.89;94354.19;1690000;83;21112;-57
2021/08/05 02:28:36;;;;;;;16.42;9.65;;;;;;;15.56;83.69;94347.47;1689318;83;21196;-57
2021/08/05 02:31:04;;;;;;;14.63;9.18;;;;;;;15.54;83.85;94354.77;1686026;83;21071;-59
2021/08/05 02:33:31;;;;;;;13.75;9.00;;;;;;;15.55;83.86;94352.13;1694131;83;21522;-58
2021/08/05 02:35:58;;;;;;;16.90;9.53;;;;;;;15.55;83.79;94359.80;1689800;83;21039;-58
2021/08/05 02:38:26;;;;;;;13.78;9.38;;;;;;;15.53;83.81;94351.86;1697747;83;21153;-59
2021/08/05 02:40:54;;;;;;;18.27;10.00;;;;;;;15.46;84.01;94357.20;1700168;83;21106;-58
2021/08/05 02:43:25;;;;;;;13.20;8.80;;;;;;;15.41;84.00;94352.98;1675795;83;20983;-59
2021/08/05 02:45:52;;;;;;;11.08;7.65;;;;;;;15.37;84.02;94347.64;1681045;84;21109;-60
2021/08/05 02:48:19;;;;;;;11.55;7.47;;;;;;;15.37;84.09;94344.86;1699739;83;20975;-60
2021/08/05 02:50:46;;;;;;;14.93;9.23;;;;;;;15.36;84.02;94342.59;1706978;84;20971;-60
2021/08/05 02:53:13;;;;;;;15.85;10.35;;;;;;;15.37;83.97;94339.96;1689416;83;21240;-59
2021/08/05 02:55:42;;;;;;;12.85;8.88;;;;;;;15.39;84.00;94347.16;1691117;83;21440;-59
2021/08/05 02:58:11;;;;;;;13.62;8.30;;;;;;;15.40;83.92;94339.73;1712345;83;21502;-59
2021/08/05 03:00:39;;;;;;;16.90;8.50;;;;;;;15.44;83.95;94331.98;1688008;83;21059;-57
2021/08/05 03:03:05;;;;;;;13.10;8.88;;;;;;;15.50;83.79;94329.24;1697296;83;21549;-59
2021/08/05 03:05:34;;;;;;;23.83;8.80;;;;;;;15.52;83.81;94322.61;1703005;83;21039;-58
2021/08/05 03:08:00;;;;;;;14.80;8.63;;;;;;;15.50;83.87;94318.92;1691554;83;21439;-58
2021/08/05 03:10:27;;;;;;;18.55;9.88;;;;;;;15.52;83.97;94327.52;1691075;83;21462;-58
2021/08/05 03:12:54;;;;;;;12.28;8.65;;;;;;;15.55;83.96;94326.53;1695198;83;21037;-59
2021/08/05 03:15:21;;;;;;;14.00;8.85;;;;;;;15.57;83.88;94328.19;1698138;83;21049;-59
2021/08/05 03:17:48;;;;;;;12.05;8.30;;;;;;;15.56;83.94;94325.92;1685277;83;21151;-58
2021/08/05 03:20:16;;;;;;;27.52;10.55;;;;;;;15.53;84.02;94323.49;1686138;83;20987;-58
2021/08/05 03:22:44;;;;;;;10.70;8.10;;;;;;;15.48;84.02;94325.59;1686854;83;21105;-58
2021/08/05 03:25:12;;;;;;;14.73;7.97;;;;;;;15.46;84.24;94330.09;1686392;83;21080;-58
2021/08/05 03:27:39;;;;;;;11.45;7.83;;;;;;;15.39;84.08;94322.96;1692100;83;20968;-59
2021/08/05 03:30:08;;;;;;;13.08;8.25;;;;;;;15.34;84.22;94313.22;1703157;83;21187;-59
2021/08/05 03:32:34;;;;;;;14.33;8.70;;;;;;;15.31;84.29;94318.33;1708505;83;20998;-60
2021/08/05 03:35:01;;;;;;;15.23;9.50;;;;;;;15.31;84.45;94318.33;1688126;83;21239;-59
2021/08/05 03:37:27;;;;;;;15.43;9.15;;;;;;;15.29;84.57;94308.36;1693191;83;21125;-59
2021/08/05 03:39:55;;;;;;;18.48;9.13;;;;;;;15.30;84.88;94300.18;1694407;83;21027;-60
2021/08/05 03:42:22;;;;;;;16.37;8.60;;;;;;;15.32;84.73;94303.99;1694261;83;21139;-60
2021/08/05 03:44:50;;;;;;;15.15;9.08;;;;;;;15.34;84.65;94307.04;1695445;83;20999;-60
2021/08/05 03:47:17;;;;;;;23.50;9.58;;;;;;;15.36;84.60;94301.77;1707251;83;21412;-60
2021/08/05 03:49:46;;;;;;;12.10;9.23;;;;;;;15.37;84.56;94294.97;1701627;83;20984;-59
2021/08/05 03:52:14;;;;;;;14.78;10.28;;;;;;;15.38;84.50;94299.91;1706987;83;21001;-59
2021/08/05 03:54:40;;;;;;;21.30;8.98;;;;;;;15.39;84.54;94299.40;1705467;83;21203;-58
2021/08/05 03:57:07;;;;;;;21.02;9.88;;;;;;;15.41;84.46;94303.85;1691868;84;21197;-59
2021/08/05 03:59:35;;;;;;;20.60;9.25;;;;;;;15.42;84.42;94308.15;1688304;83;21006;-58
2021/08/05 04:02:04;;;;;;;24.30;14.15;;;;;;;15.39;84.52;94318.80;1689338;83;21059;-59
2021/08/05 04:04:30;;;;;;;18.80;9.70;;;;;;;15.35;84.65;94314.10;1697282;83;20971;-60
2021/08/05 04:06:57;;;;;;;29.90;9.95;;;;;;;15.37;84.97;94316.40;1684103;83;21140;-59
2021/08/05 04:09:25;;;;;;;21.87;9.30;;;;;;;15.43;84.89;94314.44;1652054;83;21652;-59
2021/08/05 04:11:51;;;;;;;27.42;10.65;;;;;;;15.47;84.89;94307.44;1687886;83;20994;-60
2021/08/05 04:14:18;;;;;;;21.50;8.93;;;;;;;15.50;84.92;94312.00;1700345;83;21014;-59
2021/08/05 04:16:45;;;;;;;15.00;9.45;;;;;;;15.57;84.86;94299.08;1700861;83;21557;-59
2021/08/05 04:19:12;;;;;;;14.10;9.15;;;;;;;15.61;84.71;94294.09;1703182;83;21120;-59
2021/08/05 04:21:39;;;;;;;19.82;9.75;;;;;;;15.65;84.61;94292.47;1697427;83;21113;-58
2021/08/05 04:24:07;;;;;;;15.48;9.85;;;;;;;15.64;84.65;94294.50;1693345;83;20975;-59
2021/08/05 04:26:34;;;;;;;15.20;10.72;;;;;;;15.67;84.52;94287.97;1690998;83;21113;-58
2021/08/05 04:29:02;;;;;;;19.95;10.93;;;;;;;15.70;84.65;94281.43;1689990;83;20979;-59
2021/08/05 04:31:29;;;;;;;18.65;10.55;;;;;;;15.71;84.51;94282.95;1693002;83;21136;-58
2021/08/05 04:33:56;;;;;;;16.37;9.25;;;;;;;15.74;84.40;94280.58;1692853;83;21008;-60
2021/08/05 04:36:23;;;;;;;21.23;8.33;;;;;;;15.74;84.26;94283.99;1688469;83;21027;-59
2021/08/05 04:38:50;;;;;;;20.95;9.48;;;;;;;15.72;84.20;94274.77;1701303;83;21432;-59
2021/08/05 04:41:17;;;;;;;25.90;10.03;;;;;;;15.73;84.42;94279.06;1694625;83;20992;-59
2021/08/05 04:43:44;;;;;;;18.90;10.03;;;;;;;15.78;84.28;94278.98;1693357;83;21145;-59
2021/08/05 04:46:11;;;;;;;20.00;10.53;;;;;;;15.85;84.43;94261.87;1701993;83;20948;-58
2021/08/05 04:48:38;;;;;;;17.40;10.30;;;;;;;15.96;84.26;94271.07;1695305;83;21071;-58
2021/08/05 04:51:06;;;;;;;18.87;9.83;;;;;;;16.07;83.99;94260.03;1693058;83;21232;-59
2021/08/05 04:53:35;;;;;;;18.98;10.40;;;;;;;16.14;83.50;94267.16;1681707;83;37523;-59
2021/08/05 04:56:03;;;;;;;16.65;10.60;;;;;;;16.22;82.93;94267.59;1682713;83;21496;-60
2021/08/05 04:58:31;;;;;;;15.63;10.68;;;;;;;16.26;82.70;94268.76;1702727;83;20947;-59
2021/08/05 05:00:58;;;;;;;21.25;10.53;;;;;;;16.29;82.34;94270.67;1692380;84;20999;-59
2021/08/05 05:03:26;;;;;;;27.00;10.75;;;;;;;16.31;82.07;94266.77;1696263;83;21573;-59
2021/08/05 05:05:53;;;;;;;24.72;11.70;;;;;;;16.35;82.01;94248.53;1684261;83;21067;-60
2021/08/05 05:08:22;;;;;;;28.87;11.78;;;;;;;16.40;81.98;94253.34;1697002;83;22650;-60
2021/08/05 05:10:53;;;;;;;29.52;13.78;;;;;;;16.53;81.85;94252.30;1672069;83;21555;-59
2021/08/05 05:13:20;;;;;;;22.00;11.70;;;;;;;16.61;80.91;94248.55;1690938;83;20951;-59
2021/08/05 05:15:50;;;;;;;20.32;11.80;;;;;;;16.65;80.32;94252.46;1690812;83;21212;-59
2021/08/05 05:18:19;;;;;;;49.48;13.20;;;;;;;16.67;79.82;94255.50;1710831;83;21066;-59
2021/08/05 05:20:48;;;;;;;39.80;12.88;;;;;;;16.64;79.59;94247.55;1692284;83;21430;-60
2021/08/05 05:23:16;;;;;;;35.25;12.33;;;;;;;16.67;79.72;94252.72;1688909;83;21514;-59
2021/08/05 05:25:43;;;;;;;25.75;11.30;;;;;;;16.71;79.53;94252.63;1702977;83;21090;-60
2021/08/05 05:28:10;;;;;;;21.33;11.80;;;;;;;16.76;79.14;94252.53;1706483;84;20959;-60
2021/08/05 05:30:37;;;;;;;24.45;12.58;;;;;;;16.80;78.99;94248.27;1710667;83;21447;-60
2021/08/05 05:33:05;;;;;;;22.80;11.63;;;;;;;16.80;78.75;94249.65;1705606;83;21828;-60
2021/08/05 05:35:32;;;;;;;34.73;12.43;;;;;;;16.77;78.80;94242.93;1700792;83;21041;-58
2021/08/05 05:37:59;;;;;;;24.25;11.20;;;;;;;16.75;78.91;94233.70;1689114;84;21038;-59
2021/08/05 05:40:26;;;;;;;21.42;10.93;;;;;;;16.79;79.06;94226.52;1691938;83;21046;-60
2021/08/05 05:42:54;;;;;;;22.13;9.88;;;;;;;16.79;78.96;94220.34;1694594;83;21035;-60
2021/08/05 05:45:23;;;;;;;23.27;10.05;;;;;;;16.85;78.93;94218.34;1693010;83;21521;-59
2021/08/05 05:47:50;;;;;;;18.73;10.13;;;;;;;16.94;78.97;94214.58;1700388;83;21527;-59
2021/08/05 05:50:17;;;;;;;21.95;9.45;;;;;;;17.01;78.65;94208.52;1696863;83;20978;-59
2021/08/05 05:52:47;;;;;;;31.25;10.05;;;;;;;17.09;78.45;94212.36;1706030;83;21014;-59
2021/08/05 05:55:14;;;;;;;12.55;8.70;;;;;;;17.18;78.26;94210.72;1657661;84;21081;-60
2021/08/05 05:57:41;;;;;;;16.60;8.38;;;;;;;17.26;77.86;94203.42;1686368;82;21077;-61
2021/08/05 06:00:09;;;;;;;17.75;10.70;;;;;;;17.38;77.56;94202.19;1705017;82;21026;-60
2021/08/05 06:02:40;;;;;;;12.60;8.60;;;;;;;17.57;77.28;94189.30;1696906;81;21029;-62
2021/08/05 06:05:08;;;;;;;20.92;8.83;;;;;;;17.80;76.12;94195.77;1696374;82;21050;-59
2021/08/05 06:07:47;;;;;;;10.38;9.13;;;;;;;17.93;75.26;94185.50;1698539;82;21058;-64
2021/08/05 06:10:17;;;;;;;22.20;9.18;;;;;;;18.02;74.68;94184.60;1698675;82;21461;-60
2021/08/05 06:12:45;;;;;;;21.07;9.28;;;;;;;18.15;74.35;94182.70;1706464;82;21061;-61
2021/08/05 06:15:13;;;;;;;16.90;10.58;;;;;;;18.21;73.59;94172.43;1662870;83;21115;-63
2021/08/05 06:17:42;;;;;;;20.92;9.95;;;;;;;18.29;73.56;94170.66;1653367;85;21058;-63
2021/08/05 06:20:10;;;;;;;24.82;10.35;;;;;;;18.42;73.02;94166.70;1643391;85;21089;-64
2021/08/05 06:22:39;;;;;;;13.68;8.78;;;;;;;18.57;72.51;94163.59;1623790;85;21120;-62
2021/08/05 06:25:08;;;;;;;12.40;9.25;;;;;;;18.71;72.08;94163.30;1697045;82;21767;-61
2021/08/05 06:27:35;;;;;;;17.07;10.23;;;;;;;18.79;71.42;94154.52;1701684;82;21374;-64
2021/08/05 06:30:05;;;;;;;14.50;9.35;;;;;;;18.82;71.09;94157.66;1705294;82;21092;-61
2021/08/05 06:32:32;;;;;;;32.88;9.85;;;;;;;18.86;70.92;94162.97;1710897;82;21057;-63
2021/08/05 06:34:59;;;;;;;20.80;9.08;;;;;;;18.87;70.77;94162.44;1692463;82;21261;-61
2021/08/05 06:37:25;;;;;;;22.62;10.38;;;;;;;18.87;70.65;94165.23;1699747;82;21069;-62
2021/08/05 06:39:53;;;;;;;25.75;11.65;;;;;;;18.85;70.87;94166.39;1699625;82;21162;-57
2021/08/05 06:42:20;;;;;;;18.50;10.90;;;;;;;18.89;71.11;94152.95;1673887;82;21132;-62
2021/08/05 06:44:47;;;;;;;24.98;10.40;;;;;;;18.99;71.42;94156.94;1688358;82;21056;-60
2021/08/05 06:47:14;;;;;;;17.25;10.03;;;;;;;19.09;71.52;94148.41;1701845;82;21117;-64
2021/08/05 06:49:43;;;;;;;15.53;9.25;;;;;;;19.24;71.10;94136.30;1709015;82;21013;-63
2021/08/05 06:52:10;;;;;;;30.12;16.77;;;;;;;19.41;70.65;94137.56;1699290;82;21127;-61
2021/08/05 06:54:37;;;;;;;15.15;9.90;;;;;;;19.56;70.59;94128.93;1697060;82;21089;-57
2021/08/05 06:57:05;;;;;;;27.13;11.12;;;;;;;19.74;69.92;94124.73;1702716;82;21025;-63
2021/08/05 06:59:32;;;;;;;16.42;9.43;;;;;;;19.87;69.41;94130.44;1703371;82;21179;-55
2021/08/05 07:02:01;;;;;;;10.03;8.33;;;;;;;19.95;68.58;94118.17;1703975;82;21462;-59
2021/08/05 07:04:27;;;;;;;24.12;10.30;;;;;;;20.00;67.11;94109.00;1697413;82;21461;-60
2021/08/05 07:06:55;;;;;;;14.15;9.45;;;;;;;20.09;66.74;94100.95;1718779;82;21057;-62
2021/08/05 07:09:21;;;;;;;12.13;8.65;;;;;;;20.16;66.01;94101.13;1689621;82;21087;-56
2021/08/05 07:11:50;;;;;;;8.58;7.67;;;;;;;20.23;65.20;94092.14;1691673;81;21825;-58
2021/08/05 07:14:16;;;;;;;13.83;8.05;;;;;;;20.31;63.67;94088.86;1697359;82;21036;-58
2021/08/05 07:16:44;;;;;;;9.40;7.65;;;;;;;20.35;63.43;94081.70;1709225;82;21179;-56
2021/08/05 07:19:10;;;;;;;18.17;10.53;;;;;;;20.39;63.30;94084.95;1695194;82;20966;-56
2021/08/05 07:21:38;;;;;;;21.17;11.15;;;;;;;20.48;63.27;94076.22;1689206;82;21287;-57
2021/08/05 07:24:05;;;;;;;45.90;12.82;;;;;;;20.62;64.23;94077.05;1702791;81;21263;-62
2021/08/05 07:26:32;;;;;;;26.40;9.83;;;;;;;20.74;64.80;94074.23;1716882;82;21001;-62
2021/08/05 07:28:59;;;;;;;16.30;9.40;;;;;;;20.85;64.22;94061.52;1697427;82;21535;-61
2021/08/05 07:31:26;;;;;;;12.37;9.48;;;;;;;21.02;64.16;94065.59;1669258;83;21093;-59
2021/08/05 07:33:54;;;;;;;16.90;8.40;;;;;;;21.20;63.90;94068.24;1643746;84;21515;-64
2021/08/05 07:36:21;;;;;;;11.63;9.30;;;;;;;21.36;63.12;94065.83;1643946;84;21219;-67
2021/08/05 07:38:49;;;;;;;11.33;8.85;;;;;;;21.48;63.14;94067.17;1654937;85;22156;-57
2021/08/05 07:41:17;;;;;;;11.57;8.28;;;;;;;21.61;62.49;94062.36;1669508;83;21022;-68
2021/08/05 07:43:45;;;;;;;13.22;9.15;;;;;;;21.74;62.12;94056.82;1657266;83;21063;-58
2021/08/05 07:46:12;;;;;;;12.80;7.97;;;;;;;;;;1671406;83;21860;-52
2021/08/05 07:48:39;;;;;;;15.65;8.93;;;;;;;22.00;61.41;94044.90;1662143;84;21306;-58
2021/08/05 07:51:06;;;;;;;9.68;7.58;;;;;;;22.09;61.11;94045.23;1650373;85;21703;-65
2021/08/05 07:53:33;;;;;;;10.32;6.95;;;;;;;22.20;60.25;94037.98;1639837;85;21424;-56
2021/08/05 07:56:00;;;;;;;11.68;8.33;;;;;;;22.29;60.61;94041.11;1643652;85;21537;-63
2021/08/05 07:58:27;;;;;;;9.43;7.83;;;;;;;22.39;60.76;94040.83;1641263;85;21317;-58
2021/08/05 08:00:55;;;;;;;10.45;7.62;;;;;;;22.53;60.29;94039.52;1646195;85;22706;-63
2021/08/05 08:03:22;;;;;;;11.12;8.18;;;;;;;22.68;60.26;94025.66;1637902;85;21140;-60
2021/08/05 08:05:49;;;;;;;14.40;10.05;;;;;;;22.85;60.21;94026.05;1643804;85;21069;-60
2021/08/05 08:08:17;;;;;;;11.28;7.95;;;;;;;22.99;59.93;94020.51;1637023;85;21104;-66
2021/08/05 08:10:47;;;;;;;10.50;8.88;;;;;;;23.17;60.10;94012.59;1703361;82;21140;-58
2021/08/05 08:13:15;;;;;;;9.23;8.33;;;;;;;23.33;60.23;94008.63;1692735;82;21421;-55
2021/08/05 08:15:42;;;;;;;9.93;7.97;;;;;;;23.50;59.24;94006.16;1713718;82;21054;-57
2021/08/05 08:18:09;;;;;;;11.38;7.72;;;;;;;23.60;57.78;94004.36;1720532;82;21096;-62
2021/08/05 08:20:37;;;;;;;9.98;7.62;;;;;;;23.68;57.64;93998.16;1701507;82;21021;-60
2021/08/05 08:23:04;;;;;;;10.38;7.55;;;;;;;23.79;57.07;93990.84;1691456;82;20998;-62
2021/08/05 08:25:32;;;;;;;18.00;9.95;;;;;;;23.92;56.95;93988.63;1695519;82;21082;-61
2021/08/05 08:27:59;;;;;;;9.95;8.25;;;;;;;24.01;56.33;93989.63;1699656;82;21165;-66
2021/08/05 08:30:26;;;;;;;13.20;8.90;;;;;;;24.12;56.25;93990.73;1705007;82;21041;-64
2021/08/05 08:32:53;;;;;;;10.53;7.78;;;;;;;24.26;57.08;93984.34;1690969;82;21073;-60
2021/08/05 08:35:20;;;;;;;9.60;7.45;;;;;;;24.40;56.46;93985.06;1697927;82;21666;-57
2021/08/05 08:37:47;;;;;;;14.07;9.80;;;;;;;24.55;56.14;93980.94;1700477;82;22695;-61
2021/08/05 08:40:14;;;;;;;15.03;10.45;;;;;;;24.66;55.55;93977.81;1689505;82;21677;-60
2021/08/05 08:42:42;;;;;;;15.10;10.38;;;;;;;24.77;55.72;93967.61;1710294;82;21662;-52
2021/08/05 08:45:12;;;;;;;16.37;12.00;;;;;;;24.90;55.81;93963.91;1705365;82;21209;-55
2021/08/05 08:47:40;;;;;;;17.32;10.58;;;;;;;25.01;54.74;93962.91;1705178;82;21099;-55
2021/08/05 08:50:09;;;;;;;14.20;8.03;;;;;;;25.15;54.41;93956.45;1688321;82;21723;-58
2021/08/05 08:52:38;;;;;;;11.50;8.48;;;;;;;25.28;53.90;93954.23;1705677;82;21065;-56
2021/08/05 08:55:07;;;;;;;18.57;9.00;;;;;;;25.41;54.38;93949.08;1703825;81;21093;-54
2021/08/05 08:57:35;;;;;;;10.80;7.80;;;;;;;25.54;54.25;93939.04;1697006;82;21113;-56
2021/08/05 09:00:06;;;;;;;12.37;8.00;;;;;;;25.70;55.38;93936.31;1707742;82;21469;-58
2021/08/05 09:02:33;;;;;;;9.75;7.70;;;;;;;25.85;54.28;93930.02;1685271;82;21659;-58
2021/08/05 09:05:06;;;;;;;10.90;8.95;;;;;;;26.02;53.80;93930.17;1698036;82;21071;-54
2021/08/05 09:07:34;;;;;;;;;;;;;;;26.16;52.41;93936.42;1714812;81;21559;-67
2021/08/05 09:10:02;;;;;;;8.83;7.37;;;;;;;26.30;51.96;93923.61;1697274;82;20552;-66
2021/08/05 09:12:30;;;;;;;11.15;7.40;;;;;;;26.40;51.37;93927.98;1697057;82;21089;-65
2021/08/05 09:14:58;;;;;;;9.90;6.90;;;;;;;26.52;49.73;93927.02;1689373;82;21107;-61
2021/08/05 09:17:30;;;;;;;8.25;6.70;;;;;;;26.65;50.24;93916.17;1698226;82;21131;-55
2021/08/05 09:20:00;;;;;;;8.80;7.05;;;;;;;26.79;50.10;93912.52;1700485;81;21182;-59
2021/08/05 09:22:43;;;;;;;13.45;6.95;;;;;;;26.91;51.04;93909.35;1709190;82;21609;-58
2021/08/05 09:25:32;;;;;;;29.32;8.63;;;;;;;27.05;49.04;93892.20;1696440;82;21209;-66
2021/08/05 09:28:15;;;;;;;11.20;7.10;;;;;;;27.14;46.92;93893.03;1702850;82;21202;-67
2021/08/05 09:30:43;;;;;;;8.03;6.35;;;;;;;27.23;48.69;93892.38;1686133;82;21073;-62
2021/08/05 09:33:15;;;;;;;19.92;7.72;;;;;;;27.34;47.97;93891.17;1685315;82;21055;-66
2021/08/05 09:35:45;;;;;;;14.78;7.60;;;;;;;27.45;47.74;93890.06;1687222;82;20974;-60
2021/08/05 09:38:22;;;;;;;11.22;6.87;;;;;;;27.61;47.84;93883.61;1712098;82;21124;-62
2021/08/05 09:40:54;;;;;;;13.08;8.45;;;;;;;27.77;46.16;93881.49;1701699;81;21167;-58
2021/08/05 09:43:26;;;;;;;8.85;7.00;;;;;;;27.89;45.91;93878.27;1705716;82;21076;-67
2021/08/05 09:45:53;;;;;;;10.30;6.17;;;;;;;28.00;46.70;93884.18;1706389;82;21181;-66
2021/08/05 09:48:44;;;;;;;12.90;6.60;;;;;;;28.12;45.95;93870.28;1697688;82;21087;-67
2021/08/05 09:51:16;;;;;;;12.95;6.65;;;;;;;28.23;46.12;93862.72;1697133;82;21039;-55
2021/08/05 09:53:57;;;;;;;13.90;6.75;;;;;;;28.39;46.12;93859.82;1706502;81;22169;-59
2021/08/05 09:56:25;;;;;;;6.87;5.90;;;;;;;28.53;45.89;93848.20;1695269;82;21049;-70
2021/08/05 09:58:52;;;;;;;6.75;5.20;;;;;;;28.67;44.98;93830.94;1694446;82;21088;-68
2021/08/05 10:01:20;;;;;;;9.65;5.53;;;;;;;28.77;42.42;93821.16;1702196;82;21197;-68
2021/08/05 10:03:47;;;;;;;23.55;7.25;;;;;;;28.87;43.87;93829.70;1713557;81;21062;-60
2021/08/05 10:06:14;;;;;;;6.75;5.10;;;;;;;28.94;42.50;93829.63;1692841;82;21494;-58
2021/08/05 10:08:42;;;;;;;8.15;5.62;;;;;;;29.05;42.62;93822.66;1691320;82;21068;-59
2021/08/05 10:11:09;;;;;;;24.25;7.10;;;;;;;29.14;41.79;93824.11;1705280;82;21048;-63
2021/08/05 10:13:40;;;;;;;8.40;5.20;;;;;;;29.28;42.36;93818.81;1707229;81;21023;-60
2021/08/05 10:16:10;;;;;;;18.25;7.22;;;;;;;29.48;42.03;93821.81;1685275;82;21076;-63
2021/08/05 10:18:38;;;;;;;62.38;11.30;;;;;;;29.69;41.60;93812.08;1699570;82;21162;-58
2021/08/05 10:21:10;;;;;;;7.15;5.37;;;;;;;29.97;42.09;93817.09;1699673;82;20976;-58
2021/08/05 10:23:37;;;;;;;5.97;5.12;;;;;;;30.26;40.84;93816.45;1704933;82;21109;-56
2021/08/05 10:26:08;;;;;;;6.95;5.40;;;;;;;30.48;40.62;93813.08;1717404;82;21478;-58
2021/08/05 10:28:34;;;;;;;7.08;5.42;;;;;;;30.69;39.69;93819.63;1721137;82;21042;-61
2021/08/05 10:31:04;;;;;;;6.72;5.17;;;;;;;30.91;38.32;93803.44;1726340;82;21230;-74
2021/08/05 10:33:32;;;;;;;16.15;6.78;;;;;;;31.13;37.99;93805.02;1690566;82;21402;-58
2021/08/05 10:36:02;;;;;;;11.38;5.25;;;;;;;31.36;38.77;93803.13;1707051;82;21144;-60
2021/08/05 10:38:29;;;;;;;6.00;5.12;;;;;;;31.63;38.45;93790.76;1714664;82;21173;-65
2021/08/05 10:40:58;;;;;;;11.57;5.20;;;;;;;31.89;37.38;93779.77;1707098;82;21136;-58
2021/08/05 10:43:26;;;;;;;8.83;4.90;;;;;;;32.08;36.72;93776.08;1711502;81;21315;-61
2021/08/05 10:45:53;;;;;;;6.83;5.00;;;;;;;32.29;37.04;93771.06;1716240;82;21021;-56
2021/08/05 10:48:21;;;;;;;9.35;5.12;;;;;;;32.50;36.95;93771.77;1694598;82;21006;-62
2021/08/05 10:50:48;;;;;;;8.25;4.75;;;;;;;32.64;37.44;93774.77;1714485;82;21101;-58
2021/08/05 10:53:41;;;;;;;8.70;5.20;;;;;;;32.72;36.45;93762.48;1710605;82;21037;-60
2021/08/05 10:56:24;;;;;;;5.28;4.75;;;;;;;32.84;35.39;93764.02;1710069;82;21900;-61
2021/08/05 10:59:07;;;;;;;7.28;5.75;;;;;;;33.08;34.86;93762.67;1691549;83;21015;-72
2021/08/05 11:01:55;;;;;;;6.47;4.95;;;;;;;33.23;34.20;93755.09;1692038;82;21045;-65
2021/08/05 11:04:45;;;;;;;13.18;6.33;;;;;;;33.47;33.57;93750.12;1715568;82;21573;-62
2021/08/05 11:07:32;;;;;;;9.38;4.60;;;;;;;33.77;32.62;93749.09;1694512;82;21045;-69
2021/08/05 11:10:16;;;;;;;5.12;4.03;;;;;;;34.19;31.53;93740.22;1707719;82;21105;-66
2021/08/05 11:12:53;;;;;;;5.65;4.35;;;;;;;34.47;31.37;93738.98;1704036;82;20949;-64
2021/08/05 11:15:26;;;;;;;12.07;4.45;;;;;;;34.63;32.11;93722.75;1718435;81;22208;-59
2021/08/05 11:18:20;;;;;;;9.53;4.47;;;;;;;34.42;31.02;93725.09;1701751;82;21011;-59
2021/08/05 11:20:59;;;;;;;6.60;4.12;;;;;;;34.03;29.95;93714.26;1692900;82;21037;-53
2021/08/05 11:23:34;;;;;;;5.75;4.22;;;;;;;33.60;30.93;93714.55;1712047;82;21454;-59
2021/08/05 11:26:05;;;;;;;11.43;7.72;;;;;;;33.30;31.65;93709.14;1700877;82;21141;-62
2021/08/05 11:28:47;;;;;;;8.23;4.80;;;;;;;33.01;32.10;93701.62;1706544;82;21046;-60
2021/08/05 11:31:26;;;;;;;11.03;4.42;;;;;;;32.88;32.32;93705.08;1703849;82;21012;-56
2021/08/05 11:33:58;;;;;;;5.87;4.90;;;;;;;32.79;32.59;93700.98;1695093;82;23153;-57